Time;durP1;ratioP1;P1;durP2;ratioP2;P2;SDS_P1;SDS_P2;PMS_P1;PMS_P2;Temp;Humidity;BMP_temperature;BMP_pressure;BME280_temperature;BME280_humidity;BME280_pressure;Samples;Min_cycle;Max_cycle;Signal;HPM_P1;HPM_P2
2022/03/18 00:02:24;;;;;;;17.60;5.85;;;4.50;99.90;;;;;;4963214;28;20427;-57
2022/03/18 00:04:51;;;;;;;17.67;6.03;;;4.50;99.90;;;;;;4963944;28;20047;-57
2022/03/18 00:07:21;;;;;;;19.50;5.65;;;4.40;99.90;;;;;;4962642;28;20055;-57
2022/03/18 00:09:50;;;;;;;14.55;5.65;;;4.50;99.90;;;;;;4964007;28;20130;-58
2022/03/18 00:12:16;;;;;;;16.20;5.47;;;4.40;99.90;;;;;;4961616;29;20059;-56
2022/03/18 00:14:42;;;;;;;15.85;5.75;;;4.30;99.90;;;;;;4963052;28;20075;-57
2022/03/18 00:17:10;;;;;;;15.13;5.85;;;4.30;99.90;;;;;;4963326;29;20525;-58
2022/03/18 00:19:38;;;;;;;15.15;5.35;;;4.30;99.90;;;;;;4961291;29;20111;-57
2022/03/18 00:22:05;;;;;;;16.33;5.90;;;4.40;99.90;;;;;;4963694;28;20043;-57
2022/03/18 00:24:32;;;;;;;14.07;5.65;;;4.30;99.90;;;;;;4960907;29;20051;-57
2022/03/18 00:27:04;;;;;;;18.60;6.55;;;4.30;99.90;;;;;;4963734;28;20047;-57
2022/03/18 00:29:31;;;;;;;15.18;5.82;;;4.40;99.90;;;;;;4962913;28;20055;-57
2022/03/18 00:31:57;;;;;;;15.35;5.88;;;4.40;99.90;;;;;;4963060;28;20466;-57
2022/03/18 00:34:23;;;;;;;20.30;6.43;;;4.40;99.90;;;;;;4963175;29;20043;-57
2022/03/18 00:36:48;;;;;;;16.05;6.05;;;4.20;99.90;;;;;;4962308;29;20047;-57
2022/03/18 00:39:14;;;;;;;18.88;6.70;;;4.20;99.90;;;;;;4963471;28;20051;-57
2022/03/18 00:41:41;;;;;;;18.33;6.78;;;4.30;99.90;;;;;;4960481;29;20060;-58
2022/03/18 00:44:07;;;;;;;19.38;7.10;;;4.20;99.90;;;;;;4963383;28;20422;-57
2022/03/18 00:46:33;;;;;;;14.40;6.30;;;4.20;99.90;;;;;;4962409;28;20620;-57
2022/03/18 00:54:28;;;;;;;17.33;6.28;;;4.20;99.90;;;;;;4961639;29;20090;-57
2022/03/18 00:56:54;;;;;;;21.33;6.80;;;4.20;99.90;;;;;;4963215;29;20043;-57
2022/03/18 00:59:19;;;;;;;20.55;6.93;;;4.20;99.90;;;;;;4962038;29;20122;-57
2022/03/18 01:01:45;;;;;;;16.25;7.18;;;4.20;99.90;;;;;;4961028;28;20043;-57
2022/03/18 01:04:11;;;;;;;17.02;7.07;;;4.30;99.90;;;;;;4962410;29;20051;-57
2022/03/18 01:06:36;;;;;;;19.20;7.10;;;4.10;99.90;;;;;;4961778;28;20043;-57
2022/03/18 01:09:05;;;;;;;16.50;7.10;;;4.10;99.90;;;;;;4962945;29;20047;-57
2022/03/18 01:11:32;;;;;;;19.20;7.35;;;4.10;99.90;;;;;;4961540;29;20043;-57
2022/03/18 01:13:58;;;;;;;15.20;6.95;;;4.10;99.90;;;;;;4962740;28;20100;-57
2022/03/18 01:16:24;;;;;;;15.27;6.80;;;4.10;99.90;;;;;;4961553;28;20055;-57
2022/03/18 01:18:50;;;;;;;14.82;7.07;;;4.30;99.90;;;;;;4962270;29;20047;-57
2022/03/18 01:21:15;;;;;;;21.70;7.18;;;4.20;99.90;;;;;;4962345;29;20527;-57
2022/03/18 01:23:41;;;;;;;18.35;6.90;;;4.30;99.90;;;;;;4961707;29;20047;-57
2022/03/18 01:26:07;;;;;;;19.98;8.35;;;4.30;99.90;;;;;;4962517;29;20134;-57
2022/03/18 01:28:32;;;;;;;20.92;8.18;;;4.30;99.90;;;;;;4961298;29;20047;-57
2022/03/18 01:30:58;;;;;;;17.77;7.40;;;4.20;99.90;;;;;;4962653;28;20051;-57
2022/03/18 01:33:24;;;;;;;16.88;6.78;;;4.20;99.90;;;;;;4960273;29;20090;-57
2022/03/18 01:35:50;;;;;;;20.77;7.65;;;4.30;99.90;;;;;;4962155;29;20050;-57
2022/03/18 01:38:15;;;;;;;20.38;7.38;;;4.20;99.90;;;;;;4960587;29;20051;-57
2022/03/18 01:40:41;;;;;;;16.27;7.43;;;4.30;99.90;;;;;;4961649;28;20039;-57
2022/03/18 01:43:09;;;;;;;14.20;6.90;;;4.30;99.90;;;;;;4962128;28;20058;-57
2022/03/18 01:45:35;;;;;;;20.90;7.80;;;4.30;99.90;;;;;;4960774;28;20043;-57
2022/03/18 01:48:05;;;;;;;19.77;8.13;;;4.30;99.90;;;;;;4962695;28;20043;-57
2022/03/18 01:50:32;;;;;;;17.38;7.90;;;4.30;99.90;;;;;;4961511;28;20046;-57
2022/03/18 01:52:58;;;;;;;16.58;7.40;;;4.30;99.90;;;;;;4960572;29;20075;-57
2022/03/18 01:55:25;;;;;;;17.08;8.63;;;4.30;99.90;;;;;;4962156;28;20407;-57
2022/03/18 01:57:51;;;;;;;18.17;8.07;;;4.40;99.90;;;;;;4961472;28;20043;-57
2022/03/18 02:00:21;;;;;;;19.27;8.20;;;4.40;99.90;;;;;;4962122;28;20047;-57
2022/03/18 02:02:48;;;;;;;17.30;7.95;;;4.30;99.90;;;;;;4963795;28;20051;-58
2022/03/18 02:05:14;;;;;;;22.35;8.05;;;4.30;99.90;;;;;;4966411;28;20043;-57
2022/03/18 02:07:40;;;;;;;19.90;7.78;;;4.30;99.90;;;;;;4964874;28;20106;-57
2022/03/18 02:10:07;;;;;;;19.17;7.53;;;4.30;99.90;;;;;;4948647;29;20075;-57
2022/03/18 02:12:33;;;;;;;20.63;8.40;;;4.30;99.90;;;;;;4964110;29;20063;-57
2022/03/18 02:14:58;;;;;;;18.02;9.10;;;4.30;99.90;;;;;;4964916;29;20174;-57
2022/03/18 02:17:24;;;;;;;18.92;8.30;;;4.30;99.90;;;;;;4965702;29;20094;-57
2022/03/18 02:19:50;;;;;;;19.58;8.02;;;4.40;99.90;;;;;;4964724;28;20070;-57
2022/03/18 02:22:22;;;;;;;18.02;8.25;;;4.30;99.90;;;;;;4966212;29;20050;-57
2022/03/18 02:24:53;;;;;;;19.25;8.10;;;4.40;99.90;;;;;;4964660;28;20055;-56
2022/03/18 02:27:19;;;;;;;16.47;7.67;;;4.40;99.90;;;;;;4963477;29;20102;-57
2022/03/18 02:29:45;;;;;;;16.95;7.30;;;4.40;99.90;;;;;;4965111;29;20350;-57
2022/03/18 02:32:13;;;;;;;15.93;7.85;;;4.40;99.90;;;;;;4965012;28;20099;-57
2022/03/18 02:34:40;;;;;;;14.50;7.70;;;4.40;99.90;;;;;;4964262;29;20102;-57
2022/03/18 02:37:07;;;;;;;17.35;7.65;;;4.50;99.90;;;;;;4964151;28;20497;-57
2022/03/18 02:39:33;;;;;;;16.58;7.55;;;4.50;99.90;;;;;;4965644;28;20116;-57
2022/03/18 02:41:59;;;;;;;14.48;8.05;;;4.50;99.90;;;;;;4947349;29;20149;-57
2022/03/18 02:44:25;;;;;;;18.42;9.48;;;4.50;99.90;;;;;;4965258;29;20440;-57
2022/03/18 02:46:51;;;;;;;18.70;7.90;;;4.60;99.90;;;;;;4964628;29;20045;-57
2022/03/18 02:49:17;;;;;;;15.88;7.95;;;4.60;99.90;;;;;;4964602;28;20519;-57
2022/03/18 02:51:43;;;;;;;17.10;9.20;;;4.60;99.90;;;;;;4965331;28;20047;-57
2022/03/18 02:54:09;;;;;;;16.13;7.70;;;4.60;99.90;;;;;;4964011;28;20054;-57
2022/03/18 02:56:35;;;;;;;16.67;7.97;;;4.70;99.90;;;;;;4965650;29;20373;-57
2022/03/18 02:59:02;;;;;;;15.50;8.10;;;4.60;99.90;;;;;;4963828;29;20046;-57
2022/03/18 03:01:30;;;;;;;16.55;7.85;;;4.60;99.90;;;;;;4964928;28;20055;-57
2022/03/18 03:03:56;;;;;;;18.75;8.40;;;4.70;99.90;;;;;;4964512;28;20031;-57
2022/03/18 03:09:27;;;;;;;15.63;8.35;;;4.70;99.90;;;;;;4924561;29;20135;-57
2022/03/18 03:11:52;;;;;;;14.77;7.45;;;4.70;99.90;;;;;;4923050;29;20574;-57
2022/03/18 03:14:18;;;;;;;17.42;7.85;;;4.70;99.90;;;;;;4941432;28;20055;-57
2022/03/18 03:16:44;;;;;;;17.35;7.75;;;4.70;99.90;;;;;;4964402;28;20404;-57
2022/03/18 03:19:09;;;;;;;16.52;7.72;;;4.70;99.90;;;;;;4963740;29;20054;-58
2022/03/18 03:21:35;;;;;;;16.08;8.52;;;4.80;99.90;;;;;;4963226;29;20074;-57
2022/03/18 03:24:01;;;;;;;15.82;7.32;;;4.80;99.90;;;;;;4962314;29;20051;-58
2022/03/18 03:26:27;;;;;;;17.13;7.70;;;4.90;99.90;;;;;;4964914;29;20049;-56
2022/03/18 03:28:53;;;;;;;19.48;8.30;;;4.80;99.90;;;;;;4963408;29;20749;-58
2022/03/18 03:31:19;;;;;;;15.10;8.00;;;4.80;99.90;;;;;;4964727;28;20361;-57
2022/03/18 03:33:45;;;;;;;12.60;7.47;;;4.90;99.90;;;;;;4962528;29;20059;-57
2022/03/18 03:36:11;;;;;;;13.82;7.63;;;5.00;99.90;;;;;;4963789;28;20585;-57
2022/03/18 03:38:37;;;;;;;15.13;7.43;;;4.90;99.90;;;;;;4964350;28;20045;-58
2022/03/18 03:41:03;;;;;;;13.55;7.75;;;4.90;99.90;;;;;;4963385;29;20047;-57
2022/03/18 03:43:28;;;;;;;16.33;8.30;;;5.00;99.90;;;;;;4964452;29;20079;-57
2022/03/18 03:45:54;;;;;;;12.55;7.53;;;5.10;99.90;;;;;;4963067;28;20051;-57
2022/03/18 03:48:20;;;;;;;16.35;7.88;;;5.10;99.90;;;;;;4964368;29;20246;-56
2022/03/18 03:50:45;;;;;;;20.17;8.52;;;5.10;99.90;;;;;;4963425;29;20066;-57
2022/03/18 03:53:11;;;;;;;14.15;7.50;;;5.00;99.90;;;;;;4963538;29;20035;-58
2022/03/18 03:55:39;;;;;;;17.00;8.07;;;5.10;99.90;;;;;;4964046;28;20066;-58
2022/03/18 03:58:08;;;;;;;18.85;8.45;;;5.10;99.90;;;;;;4961779;29;20398;-57
2022/03/18 04:00:37;;;;;;;17.05;7.60;;;5.10;99.90;;;;;;4964219;29;20039;-57
2022/03/18 04:03:05;;;;;;;16.25;8.25;;;5.20;99.90;;;;;;4962860;29;20129;-57
2022/03/18 04:05:35;;;;;;;14.50;7.57;;;5.10;99.90;;;;;;4964144;29;20047;-57
2022/03/18 04:08:01;;;;;;;17.50;8.13;;;5.20;99.90;;;;;;4961950;29;20114;-57
2022/03/18 04:10:28;;;;;;;16.15;8.23;;;5.20;99.90;;;;;;4963111;28;20619;-57
2022/03/18 04:12:54;;;;;;;19.48;9.93;;;5.20;99.90;;;;;;4963586;28;20043;-57
2022/03/18 04:15:21;;;;;;;19.35;8.23;;;5.20;99.90;;;;;;4962591;28;20522;-57
2022/03/18 04:17:48;;;;;;;15.45;7.88;;;5.20;99.90;;;;;;4963664;28;20047;-57
2022/03/18 04:20:20;;;;;;;18.70;8.75;;;5.30;99.90;;;;;;4961063;29;20058;-57
2022/03/18 04:22:46;;;;;;;16.90;8.65;;;5.30;99.90;;;;;;4963681;28;20098;-57
2022/03/18 04:25:12;;;;;;;18.33;8.65;;;5.30;99.90;;;;;;4962709;28;20047;-57
2022/03/18 04:27:38;;;;;;;16.85;8.80;;;5.30;99.90;;;;;;4962796;28;20051;-57
2022/03/18 04:30:07;;;;;;;20.75;9.38;;;5.30;99.90;;;;;;4961999;29;20078;-58
2022/03/18 04:32:34;;;;;;;17.90;8.32;;;5.30;99.90;;;;;;4962539;28;20074;-57
2022/03/18 04:34:59;;;;;;;17.02;8.52;;;5.30;99.90;;;;;;4963606;28;20052;-55
2022/03/18 04:37:26;;;;;;;16.88;8.43;;;5.20;99.90;;;;;;4962224;28;20079;-57
2022/03/18 04:39:52;;;;;;;19.90;9.00;;;5.30;99.90;;;;;;4963397;28;20059;-57
2022/03/18 04:42:18;;;;;;;15.90;7.88;;;5.30;99.90;;;;;;4962807;29;20047;-57
2022/03/18 04:44:44;;;;;;;15.82;9.25;;;5.30;99.90;;;;;;4962467;28;20499;-57
2022/03/18 04:47:11;;;;;;;17.73;8.90;;;5.30;99.90;;;;;;4962804;28;20053;-57
2022/03/18 04:49:37;;;;;;;17.02;8.70;;;5.30;99.90;;;;;;4960538;29;20047;-57
2022/03/18 04:52:03;;;;;;;20.80;10.32;;;5.20;99.90;;;;;;4963395;28;20043;-55
2022/03/18 04:54:29;;;;;;;17.70;9.45;;;5.20;99.90;;;;;;4961972;28;20135;-57
2022/03/18 04:59:40;;;;;;;16.95;9.35;;;5.20;99.90;;;;;;4962587;29;20059;-58
2022/03/18 05:02:06;;;;;;;21.92;9.77;;;5.10;99.90;;;;;;4960806;29;20547;-57
2022/03/18 05:04:32;;;;;;;16.75;9.45;;;5.10;99.90;;;;;;4962848;28;20053;-57
2022/03/18 05:06:58;;;;;;;18.00;9.98;;;5.00;99.90;;;;;;4961624;28;20082;-58
2022/03/18 05:09:25;;;;;;;16.08;9.27;;;5.00;99.90;;;;;;4963252;28;20051;-57
2022/03/18 05:11:51;;;;;;;18.55;9.77;;;5.00;99.90;;;;;;4961460;28;20643;-58
2022/03/18 05:14:17;;;;;;;19.42;10.38;;;4.90;99.90;;;;;;4962363;28;20529;-58
2022/03/18 05:16:43;;;;;;;17.48;10.25;;;4.90;99.90;;;;;;4962023;28;20055;-57
2022/03/18 05:19:10;;;;;;;16.52;9.73;;;4.80;99.90;;;;;;4961885;28;20036;-57
2022/03/18 05:21:36;;;;;;;17.08;10.15;;;4.80;99.90;;;;;;4962682;28;20130;-58
2022/03/18 05:24:03;;;;;;;17.13;9.90;;;4.70;99.90;;;;;;4961523;28;20055;-57
2022/03/18 05:26:29;;;;;;;18.05;10.25;;;4.70;99.90;;;;;;4962691;29;20047;-57
2022/03/18 05:28:55;;;;;;;19.55;10.40;;;4.60;99.90;;;;;;4961529;29;20078;-56
2022/03/18 05:31:21;;;;;;;15.77;9.88;;;4.60;99.90;;;;;;4962426;29;20459;-57
2022/03/18 05:33:47;;;;;;;16.67;10.15;;;4.50;99.90;;;;;;4962045;28;20043;-57
2022/03/18 05:36:12;;;;;;;21.00;9.88;;;4.50;99.90;;;;;;4961278;28;20050;-58
2022/03/18 05:38:38;;;;;;;19.13;10.32;;;4.40;99.90;;;;;;4962606;28;20073;-57
2022/03/18 05:41:04;;;;;;;19.33;11.27;;;4.40;99.90;;;;;;4961407;28;20098;-57
2022/03/18 05:43:29;;;;;;;19.85;10.73;;;4.40;99.90;;;;;;4962477;29;20047;-57
2022/03/18 05:45:55;;;;;;;21.13;11.30;;;4.40;99.90;;;;;;4960925;29;20079;-57
2022/03/18 05:48:21;;;;;;;18.00;11.50;;;4.50;99.90;;;;;;4960944;29;20089;-56
2022/03/18 05:50:47;;;;;;;17.35;11.60;;;4.40;99.90;;;;;;4961748;29;20129;-57
2022/03/18 05:53:12;;;;;;;20.25;11.70;;;4.40;99.90;;;;;;4961671;29;20047;-58
2022/03/18 05:58:23;;;;;;;19.25;11.43;;;4.40;99.90;;;;;;4961173;29;20381;-57
2022/03/18 06:00:48;;;;;;;19.52;10.77;;;4.40;99.90;;;;;;4962530;29;20115;-57
2022/03/18 06:03:14;;;;;;;17.90;10.90;;;4.30;99.90;;;;;;4961086;29;20622;-57
2022/03/18 06:05:42;;;;;;;20.02;11.00;;;4.70;99.90;;;;;;4962123;28;20039;-58
2022/03/18 06:13:57;;;;;;;18.92;11.65;;;4.40;99.90;;;;;;4886649;29;20053;-57
2022/03/18 06:16:23;;;;;;;18.92;11.18;;;4.30;99.90;;;;;;4901522;29;20076;-57
2022/03/18 06:18:50;;;;;;;18.67;10.10;;;4.30;99.90;;;;;;4929403;29;20171;-58
2022/03/18 06:21:15;;;;;;;19.80;11.98;;;4.30;99.90;;;;;;4961839;29;20047;-57
2022/03/18 06:23:41;;;;;;;20.45;11.35;;;4.30;99.90;;;;;;4961192;29;20078;-58
2022/03/18 06:26:07;;;;;;;20.13;11.38;;;4.40;99.90;;;;;;4961918;29;20066;-58
2022/03/18 06:28:33;;;;;;;18.95;11.55;;;4.40;99.90;;;;;;4958103;29;20518;-58
2022/03/18 06:30:59;;;;;;;22.00;12.07;;;4.50;99.90;;;;;;4958316;29;20051;-59
2022/03/18 06:33:27;;;;;;;20.00;12.80;;;4.50;99.90;;;;;;4957321;29;20085;-57
2022/03/18 06:35:53;;;;;;;18.25;12.40;;;4.50;99.90;;;;;;4957667;28;20558;-58
2022/03/18 06:38:19;;;;;;;21.95;12.00;;;4.50;99.90;;;;;;4957937;28;20170;-57
2022/03/18 06:40:44;;;;;;;18.65;12.23;;;4.60;99.90;;;;;;4956893;29;20130;-58
2022/03/18 06:43:10;;;;;;;20.67;12.85;;;4.70;99.90;;;;;;4958307;29;20059;-56
2022/03/18 06:45:36;;;;;;;24.67;13.10;;;4.80;99.90;;;;;;4956528;28;20043;-58
2022/03/18 06:48:01;;;;;;;19.50;12.00;;;4.70;99.90;;;;;;4959775;28;20054;-57
2022/03/18 06:50:27;;;;;;;21.05;12.75;;;4.80;99.90;;;;;;4959369;28;20472;-57
2022/03/18 06:52:52;;;;;;;21.17;11.57;;;4.90;99.90;;;;;;4961229;29;20047;-57
2022/03/18 06:55:18;;;;;;;22.65;13.48;;;4.90;99.90;;;;;;4961151;29;20055;-57
2022/03/18 06:57:44;;;;;;;19.75;12.05;;;5.00;99.90;;;;;;4960802;29;20102;-57
2022/03/18 07:00:10;;;;;;;18.23;11.95;;;5.00;99.90;;;;;;4961282;29;20078;-57
2022/03/18 07:02:37;;;;;;;20.92;12.75;;;5.00;99.90;;;;;;4960146;28;20050;-57
2022/03/18 07:05:04;;;;;;;17.90;12.48;;;5.10;99.90;;;;;;4961223;28;20601;-58
2022/03/18 07:07:30;;;;;;;26.63;13.68;;;5.20;99.90;;;;;;4960348;28;20052;-57
2022/03/18 07:09:55;;;;;;;19.67;12.80;;;5.30;99.90;;;;;;4961109;29;20067;-57
2022/03/18 07:12:21;;;;;;;22.23;14.05;;;5.40;99.90;;;;;;4959605;29;20097;-58
2022/03/18 07:14:47;;;;;;;25.25;14.32;;;5.40;99.90;;;;;;4958652;29;20039;-58
2022/03/18 07:19:57;;;;;;;21.63;13.40;;;5.50;99.90;;;;;;4959830;29;20054;-57
2022/03/18 07:22:25;;;;;;;22.33;13.63;;;5.50;99.90;;;;;;4961259;29;20130;-57
2022/03/18 07:24:50;;;;;;;23.50;14.05;;;5.50;99.90;;;;;;4960000;28;20051;-58
2022/03/18 07:27:16;;;;;;;25.52;13.30;;;5.70;99.90;;;;;;4960267;29;20061;-58
2022/03/18 07:29:42;;;;;;;27.00;14.63;;;5.70;99.90;;;;;;4960521;28;20047;-57
2022/03/18 07:32:08;;;;;;;21.70;13.43;;;5.80;99.90;;;;;;4957754;29;20126;-57
2022/03/18 07:34:33;;;;;;;26.35;14.55;;;5.80;99.90;;;;;;4960445;29;20134;-57
2022/03/18 07:36:59;;;;;;;22.55;13.38;;;5.90;99.90;;;;;;4959106;29;20035;-57
2022/03/18 07:39:25;;;;;;;24.73;14.55;;;6.00;99.90;;;;;;4961023;29;20047;-58
2022/03/18 07:41:51;;;;;;;20.05;13.43;;;6.10;99.90;;;;;;4959405;29;20129;-56
2022/03/18 07:44:16;;;;;;;22.25;15.20;;;6.10;99.90;;;;;;4960350;29;20102;-57
2022/03/18 07:46:42;;;;;;;22.35;14.57;;;6.20;99.90;;;;;;4959451;29;20539;-57
2022/03/18 07:49:08;;;;;;;24.15;14.20;;;6.30;99.90;;;;;;4959017;29;20052;-57
2022/03/18 07:51:33;;;;;;;26.63;15.00;;;6.40;99.90;;;;;;4959890;29;20082;-57
2022/03/18 07:53:59;;;;;;;24.48;16.33;;;6.40;99.90;;;;;;4959199;28;20059;-57
2022/03/18 07:56:24;;;;;;;26.50;16.13;;;6.60;99.90;;;;;;4960568;29;20048;-57
2022/03/18 07:58:50;;;;;;;33.25;17.08;;;6.80;99.90;;;;;;4958981;28;20047;-56
2022/03/18 08:01:16;;;;;;;28.33;16.40;;;6.80;99.90;;;;;;4958544;29;20441;-57
2022/03/18 08:03:42;;;;;;;26.30;15.10;;;7.00;99.90;;;;;;4959862;29;20039;-57
2022/03/18 08:06:07;;;;;;;26.70;14.80;;;7.20;99.90;;;;;;4957838;29;20047;-56
2022/03/18 08:08:33;;;;;;;27.10;14.82;;;7.30;99.90;;;;;;4960051;29;20051;-57
2022/03/18 08:10:59;;;;;;;24.27;14.80;;;7.30;99.90;;;;;;4941700;28;20519;-57
2022/03/18 08:13:29;;;;;;;29.10;14.15;;;7.40;99.90;;;;;;4960095;29;20051;-54
2022/03/18 08:15:54;;;;;;;23.98;14.75;;;7.60;99.90;;;;;;4958599;28;20106;-58
2022/03/18 08:18:20;;;;;;;25.60;13.80;;;7.70;99.90;;;;;;4959448;29;20043;-57
2022/03/18 08:23:36;;;;;;;30.83;13.57;;;7.90;99.90;;;;;;4957654;29;20051;-58
2022/03/18 08:26:02;;;;;;;32.17;13.30;;;8.00;99.90;;;;;;4959705;29;20054;-58
2022/03/18 08:28:27;;;;;;;28.17;13.35;;;8.10;99.90;;;;;;4958581;28;20043;-58
2022/03/18 08:30:53;;;;;;;22.75;13.95;;;8.10;99.90;;;;;;4959542;29;20035;-57
2022/03/18 08:33:19;;;;;;;25.27;12.93;;;8.20;99.90;;;;;;4959005;29;20051;-57
2022/03/18 08:35:45;;;;;;;26.23;13.32;;;8.20;99.90;;;;;;4958046;29;20082;-57
2022/03/18 08:38:11;;;;;;;23.25;13.98;;;8.30;99.90;;;;;;4957846;28;20047;-57
2022/03/18 08:40:37;;;;;;;26.45;12.93;;;8.40;99.90;;;;;;4958682;29;20077;-57
2022/03/18 08:43:09;;;;;;;20.90;11.73;;;8.50;99.90;;;;;;4959412;28;20530;-57
2022/03/18 08:45:35;;;;;;;23.25;11.63;;;8.60;99.90;;;;;;4958033;28;20039;-57
2022/03/18 08:48:01;;;;;;;30.35;13.27;;;8.60;99.90;;;;;;4959612;28;20047;-57
2022/03/18 08:50:27;;;;;;;25.52;11.65;;;8.70;99.90;;;;;;4958705;28;20093;-56
2022/03/18 08:52:54;;;;;;;28.05;12.80;;;8.80;99.90;;;;;;4957257;29;20063;-57
2022/03/18 08:55:20;;;;;;;26.23;12.80;;;8.80;99.90;;;;;;4959031;28;20055;-57
2022/03/18 08:57:46;;;;;;;28.05;13.40;;;8.90;99.90;;;;;;4958387;28;20078;-57
2022/03/18 09:00:15;;;;;;;26.08;12.68;;;8.90;99.90;;;;;;4959368;28;20051;-57
2022/03/18 09:02:42;;;;;;;29.75;11.23;;;9.00;99.90;;;;;;4956860;29;20047;-57
2022/03/18 09:05:09;;;;;;;28.08;11.02;;;9.10;99.90;;;;;;4958889;28;20058;-57
2022/03/18 09:07:36;;;;;;;24.25;10.50;;;9.20;99.90;;;;;;4958143;28;20047;-57
2022/03/18 09:10:05;;;;;;;21.83;9.60;;;9.20;99.90;;;;;;4958728;28;20689;-57
2022/03/18 09:12:31;;;;;;;18.10;8.55;;;9.40;99.90;;;;;;4957723;28;20047;-57
2022/03/18 09:14:58;;;;;;;21.10;7.78;;;9.40;99.90;;;;;;4958163;28;20138;-57
2022/03/18 09:17:24;;;;;;;23.92;8.60;;;9.50;99.90;;;;;;4957336;29;20059;-57
2022/03/18 09:19:50;;;;;;;24.55;8.18;;;9.50;99.90;;;;;;4957635;28;20047;-57
2022/03/18 09:22:16;;;;;;;27.13;8.98;;;9.50;99.90;;;;;;4959045;29;20043;-57
2022/03/18 09:24:44;;;;;;;23.63;8.55;;;9.60;99.90;;;;;;4957903;28;20046;-57
2022/03/18 09:27:10;;;;;;;23.38;7.93;;;9.80;99.90;;;;;;4958631;28;20055;-57
2022/03/18 09:29:36;;;;;;;22.92;9.65;;;9.80;99.90;;;;;;4958208;28;20433;-57
2022/03/18 09:32:03;;;;;;;17.42;7.40;;;9.90;99.90;;;;;;4957903;28;20043;-58
2022/03/18 09:34:29;;;;;;;22.55;8.90;;;9.90;99.90;;;;;;4958872;28;20104;-57
2022/03/18 09:36:56;;;;;;;19.90;8.63;;;9.80;99.90;;;;;;4957654;29;20078;-57
2022/03/18 09:39:24;;;;;;;24.33;8.55;;;10.00;99.90;;;;;;4958811;28;20046;-58
2022/03/18 09:41:50;;;;;;;24.40;8.10;;;10.00;99.90;;;;;;4957494;28;20050;-57
2022/03/18 09:44:16;;;;;;;19.83;8.23;;;10.10;99.90;;;;;;4959559;28;20058;-57
2022/03/18 09:46:42;;;;;;;23.10;8.45;;;10.10;99.90;;;;;;4961174;29;20051;-57
2022/03/18 09:49:12;;;;;;;24.17;8.00;;;10.20;99.90;;;;;;4961351;28;20051;-57
2022/03/18 09:51:48;;;;;;;17.58;7.63;;;10.10;99.90;;;;;;4960880;29;20098;-57
2022/03/18 09:54:15;;;;;;;19.40;7.40;;;10.20;99.90;;;;;;4960217;28;20043;-57
2022/03/18 09:56:43;;;;;;;23.15;9.40;;;10.20;99.90;;;;;;4962410;28;20051;-57
2022/03/18 09:59:09;;;;;;;32.17;8.57;;;10.20;99.90;;;;;;4960056;29;20519;-60
2022/03/18 10:01:35;;;;;;;23.83;8.35;;;10.20;99.90;;;;;;4960670;29;20496;-57
2022/03/18 10:04:13;;;;;;;20.40;7.75;;;10.30;99.90;;;;;;4961525;28;20103;-57
2022/03/18 10:06:43;;;;;;;20.35;7.45;;;10.40;99.90;;;;;;4958084;29;20055;-57
2022/03/18 10:09:11;;;;;;;20.05;7.55;;;10.40;99.90;;;;;;4958029;28;20051;-57
2022/03/18 10:11:37;;;;;;;22.02;7.88;;;10.50;99.90;;;;;;4960666;28;20075;-59
2022/03/18 10:14:25;;;;;;;23.60;7.47;;;10.60;99.90;;;;;;4961087;29;20054;-59
2022/03/18 10:16:51;;;;;;;20.58;7.95;;;10.50;99.90;;;;;;4960628;29;20047;-59
2022/03/18 10:19:19;;;;;;;25.77;8.68;;;10.60;99.90;;;;;;4960534;29;20091;-58
2022/03/18 10:22:00;;;;;;;20.88;9.20;;;10.70;99.90;;;;;;4960363;29;20094;-59
2022/03/18 10:24:31;;;;;;;23.70;8.93;;;10.80;99.90;;;;;;4964063;28;20054;-58
2022/03/18 10:27:14;;;;;;;20.58;7.53;;;10.70;99.90;;;;;;4965519;28;20050;-59
2022/03/18 10:29:46;;;;;;;23.02;8.10;;;10.70;99.90;;;;;;4965370;28;20047;-58
2022/03/18 10:32:13;;;;;;;25.42;8.23;;;10.80;99.90;;;;;;4963250;29;20051;-58
2022/03/18 10:37:39;;;;;;;18.23;7.10;;;10.80;99.90;;;;;;4964353;29;20047;-57
2022/03/18 10:40:05;;;;;;;16.52;6.90;;;10.90;99.90;;;;;;4964935;29;20047;-59
2022/03/18 10:42:31;;;;;;;20.88;7.35;;;10.90;99.90;;;;;;4965159;28;20058;-58
2022/03/18 10:44:59;;;;;;;23.40;8.30;;;11.00;99.90;;;;;;4964566;28;20118;-59
2022/03/18 10:47:35;;;;;;;21.58;7.60;;;11.10;99.90;;;;;;4965227;28;20047;-59
2022/03/18 10:50:10;;;;;;;20.88;7.30;;;11.20;99.90;;;;;;4963923;28;20098;-58
2022/03/18 10:53:00;;;;;;;20.67;7.90;;;11.20;99.90;;;;;;4964628;29;20043;-59
2022/03/18 10:55:31;;;;;;;19.25;7.40;;;11.40;99.90;;;;;;4962934;29;20051;-58
2022/03/18 10:57:59;;;;;;;22.25;8.30;;;11.40;99.90;;;;;;4958582;29;20043;-59
2022/03/18 11:00:29;;;;;;;21.40;7.57;;;11.50;99.90;;;;;;4961656;29;20528;-59
2022/03/18 11:02:59;;;;;;;22.45;7.38;;;11.60;99.90;;;;;;4962077;28;20039;-59
2022/03/18 11:05:29;;;;;;;18.80;7.10;;;11.80;99.90;;;;;;4963827;28;20047;-58
2022/03/18 11:07:56;;;;;;;21.08;7.65;;;11.60;99.90;;;;;;4961964;29;20050;-59
2022/03/18 11:13:08;;;;;;;20.80;7.35;;;11.70;99.90;;;;;;4961983;29;20040;-58
2022/03/18 11:15:36;;;;;;;24.48;7.28;;;11.80;99.90;;;;;;4962398;28;20391;-58
2022/03/18 11:18:04;;;;;;;21.45;7.97;;;11.80;99.90;;;;;;4964343;28;20047;-59
2022/03/18 11:20:32;;;;;;;20.48;6.80;;;11.90;99.90;;;;;;4962529;29;20083;-59
2022/03/18 11:22:58;;;;;;;21.52;7.38;;;11.90;99.90;;;;;;4964192;28;20043;-59
2022/03/18 11:25:26;;;;;;;24.48;6.85;;;12.00;99.90;;;;;;4951408;29;20139;-58
2022/03/18 11:27:54;;;;;;;18.63;6.03;;;12.00;99.90;;;;;;4944326;29;20105;-59
2022/03/18 11:30:35;;;;;;;23.00;7.32;;;12.20;99.90;;;;;;4945705;29;20047;-59
2022/03/18 11:33:13;;;;;;;28.80;7.40;;;12.20;99.90;;;;;;4938496;29;20051;-59
2022/03/18 11:35:51;;;;;;;16.88;6.85;;;12.20;99.90;;;;;;4960814;29;20128;-59
2022/03/18 11:38:19;;;;;;;24.83;6.55;;;12.30;99.90;;;;;;4964340;28;20126;-59
2022/03/18 11:41:00;;;;;;;20.52;6.97;;;12.30;99.90;;;;;;4963393;28;20051;-59
2022/03/18 11:43:50;;;;;;;23.90;6.70;;;12.30;99.90;;;;;;4964092;28;20141;-59
2022/03/18 11:46:16;;;;;;;21.00;6.28;;;12.50;99.90;;;;;;4961827;29;20407;-58
2022/03/18 11:48:54;;;;;;;22.35;6.72;;;12.50;99.90;;;;;;4963193;29;20062;-59
2022/03/18 11:51:39;;;;;;;23.80;7.65;;;12.60;99.90;;;;;;4962535;29;20050;-59
2022/03/18 11:54:27;;;;;;;20.67;6.60;;;12.70;99.90;;;;;;4962992;28;20047;-59
2022/03/18 11:56:57;;;;;;;20.60;6.97;;;12.80;99.90;;;;;;4962521;29;20071;-59
2022/03/18 11:59:28;;;;;;;17.83;6.22;;;12.90;99.90;;;;;;4962251;28;20035;-59
2022/03/18 12:02:09;;;;;;;22.07;6.57;;;12.90;99.90;;;;;;4959509;28;20081;-59
2022/03/18 12:04:41;;;;;;;16.90;6.63;;;12.80;99.90;;;;;;4959582;28;20103;-59
2022/03/18 12:07:16;;;;;;;22.85;6.85;;;12.80;99.90;;;;;;4957206;29;20086;-57
2022/03/18 12:09:57;;;;;;;24.15;7.50;;;12.90;99.90;;;;;;4960304;28;20081;-59
2022/03/18 12:12:25;;;;;;;18.10;6.10;;;13.00;99.90;;;;;;4959348;29;20055;-59
2022/03/18 12:14:55;;;;;;;22.25;6.80;;;13.10;99.90;;;;;;4958936;28;20055;-58
2022/03/18 12:17:23;;;;;;;23.25;6.32;;;13.20;99.90;;;;;;4959192;28;20497;-59
2022/03/18 12:19:55;;;;;;;19.92;6.50;;;13.10;99.90;;;;;;4957282;29;20110;-58
2022/03/18 12:22:22;;;;;;;23.42;6.35;;;13.20;99.90;;;;;;4960264;28;20050;-58
2022/03/18 12:24:53;;;;;;;16.38;6.93;;;13.10;99.90;;;;;;4958854;28;20226;-59
2022/03/18 12:27:20;;;;;;;20.13;7.25;;;13.20;99.90;;;;;;4958995;28;20055;-59
2022/03/18 12:29:47;;;;;;;23.58;6.82;;;13.00;99.90;;;;;;4959721;28;20043;-59
2022/03/18 12:32:16;;;;;;;26.95;7.05;;;13.10;99.90;;;;;;4958952;28;20047;-59
2022/03/18 12:34:53;;;;;;;22.80;5.95;;;13.10;99.90;;;;;;4959873;28;20043;-58
2022/03/18 12:37:23;;;;;;;19.60;5.63;;;13.10;99.90;;;;;;4957598;28;20483;-58
2022/03/18 12:40:15;;;;;;;22.52;6.80;;;13.10;99.90;;;;;;4958996;29;20051;-59
2022/03/18 12:42:49;;;;;;;20.33;5.82;;;13.10;99.90;;;;;;4959902;28;20460;-59
2022/03/18 12:45:31;;;;;;;23.52;6.82;;;13.20;99.90;;;;;;4958249;28;20043;-59
2022/03/18 12:47:59;;;;;;;20.73;5.75;;;13.10;99.90;;;;;;4959131;28;20047;-59
2022/03/18 12:50:29;;;;;;;20.85;5.18;;;13.10;99.90;;;;;;4958772;29;20103;-59
2022/03/18 12:52:56;;;;;;;19.88;5.30;;;13.20;99.90;;;;;;4958933;28;20561;-58
2022/03/18 12:55:26;;;;;;;18.70;5.10;;;13.30;99.90;;;;;;4959187;28;20046;-58
2022/03/18 12:57:52;;;;;;;21.45;5.68;;;13.10;99.90;;;;;;4958319;28;20051;-59
2022/03/18 13:00:21;;;;;;;19.50;5.65;;;13.30;99.90;;;;;;4958908;28;20047;-59
2022/03/18 13:02:50;;;;;;;19.13;4.88;;;13.30;99.90;;;;;;4956420;29;20059;-59
2022/03/18 13:05:19;;;;;;;22.80;6.28;;;13.10;99.90;;;;;;4962264;28;20043;-59
2022/03/18 13:07:45;;;;;;;21.48;5.80;;;13.00;99.90;;;;;;4960514;29;20110;-58
2022/03/18 13:10:14;;;;;;;18.08;4.50;;;13.10;99.90;;;;;;4961947;28;20063;-59
2022/03/18 13:12:40;;;;;;;26.55;5.78;;;13.00;99.90;;;;;;4962455;29;20050;-59
2022/03/18 13:15:17;;;;;;;20.77;5.65;;;12.90;99.90;;;;;;4961164;28;20055;-59